Time;durP1;ratioP1;P1;durP2;ratioP2;P2;SDS_P1;SDS_P2;PMS_P1;PMS_P2;Temp;Humidity;BMP_temperature;BMP_pressure;BME280_temperature;BME280_humidity;BME280_pressure;Samples;Min_cycle;Max_cycle;Signal;HPM_P1;HPM_P2
2022/03/18 00:02:21;;;;;;;16.45;9.35;;;;;;;-1.44;100.00;160201.50;5063549;28;20040;-61
2022/03/18 00:04:47;;;;;;;16.35;9.07;;;;;;;-1.44;100.00;160200.16;5069957;28;20040;-61
2022/03/18 00:07:13;;;;;;;22.65;9.93;;;;;;;-1.46;100.00;160194.81;5069381;28;20502;-61
2022/03/18 00:09:41;;;;;;;12.98;9.10;;;;;;;-1.52;100.00;160180.09;5070772;28;20029;-61
2022/03/18 00:12:08;;;;;;;13.02;7.85;;;;;;;-1.56;100.00;160168.03;5058120;28;20056;-61
2022/03/18 00:14:34;;;;;;;13.73;9.05;;;;;;;-1.62;100.00;160154.66;5053855;28;20040;-61
2022/03/18 00:16:59;;;;;;;14.55;10.65;;;;;;;-1.62;100.00;160154.66;5066791;28;20048;-61
2022/03/18 00:19:27;;;;;;;15.20;10.57;;;;;;;-1.58;100.00;160162.66;5057202;28;20029;-61
2022/03/18 00:22:00;;;;;;;19.08;11.98;;;;;;;-1.60;100.00;160159.97;5050072;28;20049;-61
2022/03/18 00:24:25;;;;;;;20.58;15.10;;;;;;;-1.60;100.00;160159.97;5052294;28;20025;-61
2022/03/18 00:26:51;;;;;;;50.22;14.70;;;;;;;-1.62;100.00;160154.66;5049402;28;20071;-61
2022/03/18 00:29:16;;;;;;;17.25;12.68;;;;;;;-1.64;100.00;160149.28;5050807;28;20025;-61
2022/03/18 00:31:41;;;;;;;20.70;12.52;;;;;;;-1.66;100.00;160143.94;5058883;28;20450;-61
2022/03/18 00:34:08;;;;;;;23.35;11.55;;;;;;;-1.73;100.00;160125.19;5063483;28;20028;-61
2022/03/18 00:36:34;;;;;;;22.67;14.20;;;;;;;-1.77;100.00;160114.50;5069753;28;20450;-61
2022/03/18 00:39:00;;;;;;;27.30;14.05;;;;;;;-1.79;100.00;160109.13;5071327;28;20028;-61
2022/03/18 00:41:27;;;;;;;36.90;19.40;;;;;;;-1.80;100.00;160106.47;5068568;28;20098;-61
2022/03/18 00:43:53;;;;;;;46.30;27.50;;;;;;;-1.82;100.00;160102.47;5068109;28;20016;-61
2022/03/18 00:46:22;;;;;;;37.05;23.35;;;;;;;-1.81;100.00;160103.78;5060755;28;20056;-61
2022/03/18 00:54:16;;;;;;;26.20;17.63;;;;;;;-1.92;100.00;160075.69;5055061;28;20176;-61
2022/03/18 00:56:41;;;;;;;31.08;20.08;;;;;;;-1.99;100.00;160056.94;5053459;28;20045;-61
2022/03/18 00:59:06;;;;;;;33.05;19.30;;;;;;;-2.00;100.00;160055.63;5066033;28;20054;-61
2022/03/18 01:01:32;;;;;;;29.15;13.80;;;;;;;-2.02;100.00;160050.25;5065859;28;20411;-61
2022/03/18 01:03:58;;;;;;;16.50;11.93;;;;;;;-2.07;100.00;160036.91;5054636;28;20025;-60
2022/03/18 01:06:23;;;;;;;31.02;11.27;;;;;;;-2.07;100.00;160036.91;5053355;28;20850;-60
2022/03/18 01:08:49;;;;;;;13.02;10.55;;;;;;;-2.10;100.00;160028.84;5055462;28;20395;-60
2022/03/18 01:11:14;;;;;;;19.65;12.25;;;;;;;-2.01;100.00;160052.94;5058950;28;21699;-60
2022/03/18 01:13:40;;;;;;;25.67;12.80;;;;;;;-2.05;100.00;160042.25;5054700;28;20026;-60
2022/03/18 01:16:05;;;;;;;26.67;14.02;;;;;;;-2.04;100.00;160044.88;5053116;28;20025;-60
2022/03/18 01:18:30;;;;;;;19.25;12.02;;;;;;;-2.07;100.00;160036.91;5061939;28;20073;-60
2022/03/18 01:20:56;;;;;;;17.23;13.13;;;;;;;-2.06;100.00;160039.56;5072628;28;20029;-60
2022/03/18 01:23:21;;;;;;;21.70;13.10;;;;;;;-2.12;100.00;160023.47;5072811;28;20628;-60
2022/03/18 01:25:46;;;;;;;25.40;13.07;;;;;;;-2.17;100.00;160010.13;5073584;28;20043;-60
2022/03/18 01:28:13;;;;;;;26.58;13.77;;;;;;;-2.27;100.00;159986.03;5052750;28;20041;-60
2022/03/18 01:30:38;;;;;;;19.50;11.55;;;;;;;-2.28;100.00;159983.38;5057048;28;20056;-60
2022/03/18 01:33:04;;;;;;;27.60;13.50;;;;;;;-2.28;100.00;159983.38;5059781;28;20723;-60
2022/03/18 01:35:29;;;;;;;19.33;11.80;;;;;;;-2.28;100.00;159983.38;5054390;28;20493;-60
2022/03/18 01:37:55;;;;;;;21.92;10.38;;;;;;;-2.26;100.00;159988.69;5052747;28;20439;-60
2022/03/18 01:40:20;;;;;;;14.63;10.10;;;;;;;-2.28;100.00;159983.38;5063409;28;20048;-60
2022/03/18 01:42:46;;;;;;;13.63;9.32;;;;;;;-2.37;100.00;159959.28;5052333;28;20041;-57
2022/03/18 01:45:11;;;;;;;15.98;10.85;;;;;;;-2.38;100.00;159955.31;5055061;28;20380;-61
2022/03/18 01:47:42;;;;;;;20.33;10.80;;;;;;;-2.38;100.00;159956.63;5072735;28;20067;-61
2022/03/18 01:50:14;;;;;;;22.92;9.32;;;;;;;-2.42;100.00;159945.94;5073434;28;20029;-61
2022/03/18 01:52:40;;;;;;;12.32;9.45;;;;;;;-2.43;100.00;159943.25;5032676;28;20041;-61
2022/03/18 01:55:07;;;;;;;9.10;8.02;;;;;;;-2.46;100.00;159935.22;5055980;28;20515;-61
2022/03/18 01:57:32;;;;;;;12.43;8.68;;;;;;;-2.52;100.00;159919.16;5071999;28;20092;-61
2022/03/18 01:59:58;;;;;;;21.60;9.75;;;;;;;-2.56;100.00;159909.81;5073313;28;20487;-61
2022/03/18 02:02:24;;;;;;;16.20;9.80;;;;;;;-2.64;100.00;159889.72;5056070;28;20045;-61
2022/03/18 02:04:50;;;;;;;11.30;7.97;;;;;;;-2.65;100.00;159885.72;5053413;28;20024;-61
2022/03/18 02:07:16;;;;;;;18.10;8.98;;;;;;;-2.62;100.00;159895.06;5056671;28;20082;-61
2022/03/18 02:09:43;;;;;;;16.23;9.38;;;;;;;-2.72;100.00;159868.34;5053432;28;20025;-61
2022/03/18 02:12:09;;;;;;;18.42;9.18;;;;;;;-2.70;100.00;159873.66;5066825;28;20045;-61
2022/03/18 02:14:37;;;;;;;16.80;9.32;;;;;;;-2.69;100.00;159876.34;5073515;28;20051;-61
2022/03/18 02:17:05;;;;;;;29.15;11.05;;;;;;;-2.65;100.00;159887.09;5072128;28;20039;-61
2022/03/18 02:19:31;;;;;;;24.92;9.27;;;;;;;-2.65;100.00;159887.09;5072933;28;20024;-61
2022/03/18 02:21:57;;;;;;;18.27;11.18;;;;;;;-2.73;100.00;159867.00;5058401;28;20064;-61
2022/03/18 02:24:23;;;;;;;15.40;8.40;;;;;;;-2.77;100.00;159856.31;5053521;28;20055;-61
2022/03/18 02:26:50;;;;;;;10.68;8.75;;;;;;;-2.78;100.00;159852.28;5051630;28;20519;-61
2022/03/18 02:29:20;;;;;;;20.30;10.38;;;;;;;-2.78;100.00;159852.28;5052960;28;20024;-61
2022/03/18 02:31:46;;;;;;;20.42;10.25;;;;;;;-2.72;100.00;159868.34;5058167;28;20401;-61
2022/03/18 02:34:12;;;;;;;14.55;9.27;;;;;;;-2.78;100.00;159852.28;5052520;28;20028;-61
2022/03/18 02:36:37;;;;;;;12.93;8.02;;;;;;;-2.88;100.00;159828.25;5063623;28;20036;-61
2022/03/18 02:39:03;;;;;;;14.93;8.80;;;;;;;-2.82;100.00;159841.59;5053098;28;20425;-61
2022/03/18 02:41:29;;;;;;;10.98;9.25;;;;;;;-2.90;100.00;159822.88;5059964;28;20044;-61
2022/03/18 02:43:54;;;;;;;15.80;8.55;;;;;;;-2.90;100.00;159822.88;5073200;28;20122;-61
2022/03/18 02:46:21;;;;;;;12.77;9.93;;;;;;;-2.89;100.00;159824.19;5060665;28;20025;-60
2022/03/18 02:48:47;;;;;;;24.15;10.15;;;;;;;-2.89;100.00;159825.56;5052664;28;20060;-60
2022/03/18 02:51:13;;;;;;;10.68;8.40;;;;;;;-2.88;100.00;159828.25;5057977;28;20508;-60
2022/03/18 02:53:39;;;;;;;12.68;10.45;;;;;;;-2.92;100.00;159817.50;5067355;28;20025;-61
2022/03/18 02:56:04;;;;;;;12.88;9.45;;;;;;;-2.93;100.00;159814.81;5059069;28;20027;-61
2022/03/18 02:58:30;;;;;;;22.17;10.73;;;;;;;-2.92;100.00;159817.50;5071444;28;20044;-60
2022/03/18 03:00:55;;;;;;;18.77;9.60;;;;;;;-2.97;100.00;159802.78;5072559;28;20515;-60
2022/03/18 03:03:21;;;;;;;17.80;9.48;;;;;;;-2.99;100.00;159797.47;5070276;28;20124;-60
2022/03/18 03:08:31;;;;;;;24.58;12.10;;;;;;;-2.96;100.00;159806.84;5071037;28;20067;-60
2022/03/18 03:10:57;;;;;;;17.70;11.02;;;;;;;-2.97;100.00;159802.78;5071502;28;20063;-60
2022/03/18 03:13:23;;;;;;;27.90;12.02;;;;;;;-2.93;100.00;159813.50;5070551;28;20072;-60
2022/03/18 03:15:49;;;;;;;21.23;11.27;;;;;;;-2.96;100.00;159806.84;5072349;28;20024;-60
2022/03/18 03:18:15;;;;;;;25.73;18.50;;;;;;;-2.96;100.00;159806.84;5069906;28;20041;-59
2022/03/18 03:20:40;;;;;;;20.90;11.35;;;;;;;-3.03;100.00;159788.13;5072205;28;20082;-59
2022/03/18 03:23:05;;;;;;;24.23;12.38;;;;;;;-3.04;100.00;159785.44;5070699;28;20124;-59
2022/03/18 03:25:31;;;;;;;18.90;12.27;;;;;;;-3.09;100.00;159772.09;5071450;28;20024;-60
2022/03/18 03:27:56;;;;;;;16.60;13.25;;;;;;;-3.05;100.00;159782.75;5070487;28;20100;-59
2022/03/18 03:30:22;;;;;;;20.65;11.50;;;;;;;-3.03;100.00;159788.13;5071795;28;20020;-60
2022/03/18 03:32:49;;;;;;;20.15;10.98;;;;;;;-3.03;100.00;159788.13;5069968;28;20074;-61
2022/03/18 03:35:15;;;;;;;20.15;11.85;;;;;;;-3.02;100.00;159790.81;5071645;28;20031;-61
2022/03/18 03:37:41;;;;;;;15.10;9.30;;;;;;;-3.08;100.00;159774.72;5070524;28;20044;-61
2022/03/18 03:40:07;;;;;;;17.77;11.40;;;;;;;-3.12;100.00;159765.34;5071405;28;20020;-61
2022/03/18 03:42:32;;;;;;;19.73;13.30;;;;;;;-3.12;100.00;159764.03;5070616;28;20044;-61
2022/03/18 03:44:58;;;;;;;18.48;9.27;;;;;;;-3.08;100.00;159774.72;5067412;28;20040;-61
2022/03/18 03:47:23;;;;;;;19.67;11.57;;;;;;;-3.08;100.00;159774.72;5049823;28;20503;-61
2022/03/18 03:49:48;;;;;;;24.15;11.85;;;;;;;-3.11;100.00;159768.03;5051530;28;20047;-61
2022/03/18 03:52:15;;;;;;;15.95;9.55;;;;;;;-3.07;100.00;159777.41;5050014;28;20048;-61
2022/03/18 03:54:40;;;;;;;16.83;11.82;;;;;;;-3.06;100.00;159780.06;5065742;28;20211;-61
2022/03/18 03:57:06;;;;;;;13.15;10.32;;;;;;;-3.06;100.00;159780.06;5054637;28;20043;-61
2022/03/18 03:59:32;;;;;;;14.27;11.23;;;;;;;-3.06;100.00;159780.06;5064172;28;20378;-61
2022/03/18 04:01:58;;;;;;;22.17;12.77;;;;;;;-3.02;100.00;159790.81;5058927;28;20059;-61
2022/03/18 04:04:24;;;;;;;17.77;9.88;;;;;;;-3.05;100.00;159784.06;5070278;28;20021;-61
2022/03/18 04:06:49;;;;;;;21.92;11.10;;;;;;;-3.05;100.00;159782.75;5063963;28;20488;-61
2022/03/18 04:09:15;;;;;;;15.15;12.45;;;;;;;-3.03;100.00;159788.13;5060161;28;20024;-61
2022/03/18 04:11:40;;;;;;;20.23;10.40;;;;;;;-3.04;100.00;159785.44;5062609;28;20465;-61
2022/03/18 04:14:06;;;;;;;15.70;12.27;;;;;;;-3.07;100.00;159778.75;5064876;28;20476;-61
2022/03/18 04:16:31;;;;;;;14.95;10.45;;;;;;;-3.08;100.00;159774.72;5059572;28;20040;-61
2022/03/18 04:18:56;;;;;;;20.45;13.25;;;;;;;-3.06;100.00;159781.44;5061273;28;20016;-61
2022/03/18 04:21:22;;;;;;;24.73;11.73;;;;;;;-3.06;100.00;159780.06;5060638;28;20028;-59
2022/03/18 04:23:47;;;;;;;12.48;10.18;;;;;;;-3.07;100.00;159777.41;5061616;28;20019;-60
2022/03/18 04:26:13;;;;;;;19.88;11.32;;;;;;;-3.08;100.00;159774.72;5061642;28;20027;-60
2022/03/18 04:28:38;;;;;;;21.70;12.82;;;;;;;-3.09;100.00;159772.09;5060124;28;20464;-60
2022/03/18 04:31:03;;;;;;;27.23;12.40;;;;;;;-3.08;100.00;159774.72;5063746;28;20016;-60
2022/03/18 04:33:28;;;;;;;12.50;11.25;;;;;;;-3.07;100.00;159777.41;5062447;28;20036;-60
2022/03/18 04:35:54;;;;;;;17.88;11.05;;;;;;;-3.07;100.00;159777.41;5060656;28;20040;-60
2022/03/18 04:38:19;;;;;;;19.30;10.55;;;;;;;-3.04;100.00;159785.44;5060426;28;20048;-60
2022/03/18 04:40:45;;;;;;;26.80;12.60;;;;;;;-3.10;100.00;159769.41;5064004;28;20023;-60
2022/03/18 04:43:10;;;;;;;13.35;10.80;;;;;;;-3.14;100.00;159758.69;5060365;28;20052;-59
2022/03/18 04:45:35;;;;;;;23.40;10.68;;;;;;;-3.20;100.00;159745.31;5062512;28;20028;-60
2022/03/18 04:48:01;;;;;;;16.65;12.65;;;;;;;-3.17;100.00;159750.69;5059911;28;20454;-60
2022/03/18 04:50:27;;;;;;;16.80;12.68;;;;;;;-3.15;100.00;159756.00;5059246;28;20495;-60
2022/03/18 04:52:52;;;;;;;21.98;11.52;;;;;;;-3.17;100.00;159752.00;5059268;28;20043;-59
2022/03/18 04:55:18;;;;;;;24.08;11.88;;;;;;;-3.22;100.00;159739.97;5060806;28;20064;-59
2022/03/18 04:57:43;;;;;;;20.33;13.73;;;;;;;-3.22;100.00;159738.66;5061475;28;20036;-59
2022/03/18 05:00:09;;;;;;;18.70;11.45;;;;;;;-3.23;100.00;159737.28;5063580;28;20021;-59
2022/03/18 05:02:36;;;;;;;22.27;12.63;;;;;;;-3.23;100.00;159737.28;5061532;28;20123;-60
2022/03/18 05:05:02;;;;;;;22.02;11.48;;;;;;;-3.22;100.00;159738.66;5059313;28;20391;-59
2022/03/18 05:07:28;;;;;;;24.33;12.25;;;;;;;-3.25;100.00;159731.97;5057948;28;20515;-59
2022/03/18 05:09:54;;;;;;;21.02;11.48;;;;;;;-3.30;100.00;159718.56;5060125;28;20036;-59
2022/03/18 05:12:19;;;;;;;21.63;13.13;;;;;;;-3.23;100.00;159735.97;5061568;28;20048;-57
2022/03/18 05:14:45;;;;;;;20.55;12.55;;;;;;;-3.31;100.00;159715.91;5061697;28;20040;-57
2022/03/18 05:17:10;;;;;;;20.83;14.15;;;;;;;-3.35;100.00;159705.22;5059587;28;20036;-57
2022/03/18 05:19:37;;;;;;;16.20;12.68;;;;;;;-3.35;100.00;159706.53;5064161;28;20048;-57
2022/03/18 05:22:03;;;;;;;17.30;11.23;;;;;;;-3.38;100.00;159697.19;5064088;28;20472;-57
2022/03/18 05:24:29;;;;;;;21.25;12.98;;;;;;;-3.44;100.00;159681.16;5060610;28;20488;-57
2022/03/18 05:26:55;;;;;;;24.98;13.73;;;;;;;-3.43;100.00;159685.19;5058663;28;20072;-57
2022/03/18 05:29:21;;;;;;;18.50;12.82;;;;;;;-3.40;100.00;159693.19;5058067;28;20024;-57
2022/03/18 05:31:47;;;;;;;15.10;13.27;;;;;;;-3.41;100.00;159689.19;5053052;28;20545;-57
2022/03/18 05:34:13;;;;;;;20.25;12.75;;;;;;;-3.38;100.00;159697.19;5061049;28;20024;-57
2022/03/18 05:36:42;;;;;;;20.50;12.70;;;;;;;-3.43;100.00;159683.81;5061781;28;20036;-57
2022/03/18 05:39:07;;;;;;;;;;;;;;;-3.40;100.00;159693.19;5059215;28;20043;-58
2022/03/18 05:41:33;;;;;;;17.25;11.20;;;;;;;-3.40;100.00;159691.88;5058266;28;20372;-57
2022/03/18 05:43:58;;;;;;;23.58;12.07;;;;;;;-3.40;100.00;159691.88;5063056;28;20029;-57
2022/03/18 05:46:24;;;;;;;21.15;13.70;;;;;;;-3.40;100.00;159691.88;5062325;28;20474;-57
2022/03/18 05:48:49;;;;;;;25.80;12.82;;;;;;;-3.43;100.00;159685.19;5062724;28;20017;-57
2022/03/18 05:51:15;;;;;;;18.65;11.27;;;;;;;-3.43;100.00;159683.81;5061766;28;20016;-57
2022/03/18 05:53:40;;;;;;;14.90;10.95;;;;;;;-3.44;100.00;159681.16;5063905;28;20024;-57
2022/03/18 05:58:50;;;;;;;23.77;12.65;;;;;;;-3.31;100.00;159715.91;5062656;28;20147;-57
2022/03/18 06:01:16;;;;;;;20.85;11.13;;;;;;;-3.25;100.00;159731.97;5071607;28;20127;-57
2022/03/18 06:03:41;;;;;;;18.80;12.10;;;;;;;-3.16;100.00;159753.38;5073805;28;20464;-57
2022/03/18 06:06:07;;;;;;;16.65;13.13;;;;;;;-3.12;100.00;159765.34;5072172;28;20032;-56
2022/03/18 06:14:00;;;;;;;13.18;11.38;;;;;;;-3.03;100.00;159788.13;5062302;28;20114;-57
2022/03/18 06:16:26;;;;;;;13.20;9.77;;;;;;;-2.94;100.00;159812.16;5061588;28;20040;-57
2022/03/18 06:18:51;;;;;;;15.55;10.13;;;;;;;-2.90;100.00;159822.88;5064186;28;20020;-57
2022/03/18 06:21:17;;;;;;;26.65;14.65;;;;;;;-2.91;100.00;159820.19;5060395;28;20457;-57
2022/03/18 06:23:43;;;;;;;32.03;14.73;;;;;;;-2.87;100.00;159830.88;5063413;28;20366;-57
2022/03/18 06:26:08;;;;;;;23.48;12.38;;;;;;;-2.82;100.00;159841.59;5061708;28;20100;-57
2022/03/18 06:28:34;;;;;;;18.90;10.88;;;;;;;-2.78;100.00;159852.28;5061597;28;20473;-57
2022/03/18 06:30:59;;;;;;;20.80;11.65;;;;;;;-2.62;100.00;159895.06;5061380;28;20108;-57
2022/03/18 06:33:27;;;;;;;20.63;13.18;;;;;;;-2.48;100.00;159929.84;5061456;28;20094;-57
2022/03/18 06:35:52;;;;;;;21.23;13.43;;;;;;;-2.40;100.00;159951.25;5063816;28;20017;-57
2022/03/18 06:38:18;;;;;;;22.42;11.10;;;;;;;-2.34;100.00;159965.97;5059675;28;20029;-57
2022/03/18 06:40:43;;;;;;;18.45;10.75;;;;;;;-2.28;100.00;159982.03;5071579;28;20036;-57
2022/03/18 06:43:08;;;;;;;21.05;11.63;;;;;;;-2.27;100.00;159986.03;5071230;28;20033;-57
2022/03/18 06:45:34;;;;;;;23.17;12.82;;;;;;;-2.17;100.00;160011.47;5071699;28;20518;-57
2022/03/18 06:47:59;;;;;;;12.40;9.93;;;;;;;-2.07;100.00;160036.91;5071650;28;20040;-57
2022/03/18 06:50:25;;;;;;;28.08;13.57;;;;;;;-1.98;100.00;160061.00;5072395;28;20029;-57
2022/03/18 06:52:51;;;;;;;18.27;11.18;;;;;;;-1.93;100.00;160074.34;5071381;28;20558;-57
2022/03/18 06:55:16;;;;;;;19.58;11.82;;;;;;;-1.70;100.00;160131.88;5072643;28;20066;-57
2022/03/18 06:57:42;;;;;;;21.45;12.00;;;;;;;-1.55;100.00;160170.72;5071322;28;20040;-57
2022/03/18 07:00:09;;;;;;;17.00;10.60;;;;;;;-1.42;100.00;160205.50;5072526;28;20096;-57
2022/03/18 07:02:34;;;;;;;14.70;12.50;;;;;;;-1.34;100.00;160225.63;5071087;28;20055;-57
2022/03/18 07:04:59;;;;;;;17.25;10.07;;;;;;;-1.20;100.00;160263.09;5072621;28;20020;-57
2022/03/18 07:07:25;;;;;;;19.45;11.80;;;;;;;-1.09;100.00;160291.22;5070662;28;20097;-57
2022/03/18 07:09:50;;;;;;;19.02;10.52;;;;;;;-0.89;100.00;160342.09;5072586;28;20040;-57
2022/03/18 07:12:16;;;;;;;15.68;11.52;;;;;;;-0.69;100.00;160395.66;5070814;28;20049;-57
2022/03/18 07:14:42;;;;;;;17.25;11.85;;;;;;;-0.52;100.00;160439.84;5072134;28;20407;-57
2022/03/18 07:19:52;;;;;;;21.77;12.65;;;;;;;-0.20;100.00;160521.59;5072593;28;20518;-57
2022/03/18 07:22:18;;;;;;;13.02;10.65;;;;;;;-0.04;100.00;160564.44;5070285;28;20385;-57
2022/03/18 07:24:43;;;;;;;11.75;10.43;;;;;;;0.11;100.00;160602.00;5072231;28;20035;-57
2022/03/18 07:27:09;;;;;;;12.20;10.43;;;;;;;0.25;100.00;160638.16;5070545;28;20086;-57
2022/03/18 07:29:34;;;;;;;28.17;13.88;;;;;;;0.44;100.00;160687.75;5071884;28;20024;-57
2022/03/18 07:32:00;;;;;;;19.17;12.75;;;;;;;0.68;100.00;160750.75;5070709;28;20179;-57
2022/03/18 07:34:25;;;;;;;20.95;13.23;;;;;;;0.91;100.00;160809.75;5071703;28;20498;-57
2022/03/18 07:36:50;;;;;;;20.75;13.80;;;;;;;1.13;100.00;160866.06;5070348;28;20044;-57
2022/03/18 07:39:16;;;;;;;30.27;17.20;;;;;;;1.36;100.00;160926.47;5071683;28;20028;-57
2022/03/18 07:41:41;;;;;;;30.17;15.15;;;;;;;1.60;100.00;160988.19;5070477;28;20037;-58
2022/03/18 07:44:07;;;;;;;23.92;16.33;;;;;;;1.97;100.00;161084.81;5071369;28;20031;-58
2022/03/18 07:46:32;;;;;;;20.08;16.83;;;;;;;2.27;100.00;161162.66;5070388;28;20036;-59
2022/03/18 07:48:58;;;;;;;39.60;23.42;;;;;;;2.82;100.00;161306.28;5071529;28;20017;-58
2022/03/18 07:51:23;;;;;;;29.60;15.35;;;;;;;3.25;100.00;161417.72;5069732;28;20025;-58
2022/03/18 07:53:48;;;;;;;29.13;17.75;;;;;;;3.77;100.00;161554.75;5071606;28;20021;-58
2022/03/18 07:56:14;;;;;;;27.85;13.98;;;;;;;4.40;100.00;161718.75;5069831;28;20024;-58
2022/03/18 07:58:39;;;;;;;19.58;12.68;;;;;;;4.69;100.00;161794.03;5070940;28;20021;-56
2022/03/18 08:01:10;;;;;;;21.38;9.90;;;;;;;6.07;100.00;162151.94;5071314;28;20048;-56
2022/03/18 08:03:35;;;;;;;20.73;9.10;;;;;;;7.04;100.00;162404.97;5070518;28;20055;-56
2022/03/18 08:06:01;;;;;;;12.18;8.27;;;;;;;8.55;100.00;162799.84;5071297;28;20020;-56
2022/03/18 08:08:26;;;;;;;16.58;9.00;;;;;;;9.60;100.00;163074.94;5069615;28;20541;-57
2022/03/18 08:10:52;;;;;;;20.33;9.27;;;;;;;10.34;100.00;163267.84;5071447;28;20020;-56
2022/03/18 08:13:17;;;;;;;11.60;6.13;;;;;;;11.65;100.00;163610.88;5069472;28;20071;-57
2022/03/18 08:15:44;;;;;;;16.23;6.55;;;;;;;12.36;100.00;163797.34;5071325;28;20024;-56
2022/03/18 08:18:10;;;;;;;25.05;6.57;;;;;;;12.66;100.00;163875.72;5069911;28;20056;-57
2022/03/18 08:20:40;;;;;;;14.80;5.43;;;;;;;13.29;100.00;164039.28;5071125;28;20474;-56
2022/03/18 08:23:06;;;;;;;12.23;5.78;;;;;;;13.94;100.00;164211.09;5069594;28;20067;-57
2022/03/18 08:25:32;;;;;;;12.48;6.00;;;;;;;14.39;100.00;164327.41;5071150;28;20016;-56
2022/03/18 08:27:57;;;;;;;11.75;6.85;;;;;;;13.81;100.00;164175.94;5069522;28;20052;-56
2022/03/18 08:30:22;;;;;;;28.60;5.57;;;;;;;13.28;100.00;164037.94;5070900;28;20028;-57
2022/03/18 08:32:48;;;;;;;16.38;5.22;;;;;;;13.75;100.00;164159.66;5069672;28;20040;-57
2022/03/18 08:35:14;;;;;;;18.08;6.85;;;;;;;13.90;100.00;164198.91;5070565;28;20029;-56
2022/03/18 08:37:57;;;;;;;10.23;5.45;;;;;;;14.60;100.00;164384.25;5069894;28;20051;-57
2022/03/18 08:40:23;;;;;;;13.45;6.03;;;;;;;14.99;100.00;164484.44;5071282;28;20027;-56
2022/03/18 08:42:49;;;;;;;10.57;5.00;;;;;;;15.00;100.00;164487.16;5069348;28;20111;-56
2022/03/18 08:45:15;;;;;;;10.68;4.70;;;;;;;14.95;100.00;164473.56;5071150;28;20066;-56
2022/03/18 08:47:41;;;;;;;8.93;3.90;;;;;;;14.82;100.00;164441.13;5069745;28;20097;-57
2022/03/18 08:50:07;;;;;;;10.43;5.50;;;;;;;14.99;100.00;164484.44;5070269;28;20403;-56
2022/03/18 08:52:32;;;;;;;11.23;4.80;;;;;;;14.42;100.00;164335.50;5068581;28;20415;-56
2022/03/18 08:54:58;;;;;;;9.30;4.60;;;;;;;15.07;100.00;164506.09;5070875;28;20027;-57
2022/03/18 08:57:23;;;;;;;15.20;6.10;;;;;;;15.14;100.00;164525.03;5068982;28;20535;-57
2022/03/18 08:59:48;;;;;;;9.02;3.85;;;;;;;15.33;100.00;164575.13;5070964;28;20016;-56
2022/03/18 09:02:14;;;;;;;20.38;5.20;;;;;;;14.90;100.00;164462.78;5069021;28;20053;-57
2022/03/18 09:04:39;;;;;;;8.77;3.80;;;;;;;15.07;100.00;164506.09;5069786;28;20448;-56
2022/03/18 09:07:04;;;;;;;8.38;3.88;;;;;;;15.01;100.00;164489.81;5067911;28;20048;-58
2022/03/18 09:09:30;;;;;;;8.73;3.10;;;;;;;16.62;100.00;164912.34;5071798;28;20032;-56
2022/03/18 09:11:55;;;;;;;8.90;4.05;;;;;;;15.49;100.00;164615.69;5059163;28;20052;-57
2022/03/18 09:14:21;;;;;;;9.90;3.53;;;;;;;15.43;100.00;164600.84;5054503;28;20710;-56
2022/03/18 09:16:48;;;;;;;8.80;3.17;;;;;;;15.32;100.00;164571.03;5053281;28;20139;-57
2022/03/18 09:19:14;;;;;;;11.10;3.25;;;;;;;14.51;100.00;164359.88;5061710;28;20024;-57
2022/03/18 09:21:40;;;;;;;15.88;5.05;;;;;;;14.66;100.00;164397.81;5069727;28;20037;-57
2022/03/18 09:24:05;;;;;;;10.75;3.17;;;;;;;15.26;96.91;164554.78;5060182;28;20024;-57
2022/03/18 09:26:31;;;;;;;7.40;3.35;;;;;;;15.69;91.63;164669.88;5053001;28;20061;-57
2022/03/18 09:28:56;;;;;;;5.70;3.17;;;;;;;15.52;97.83;164625.22;5053748;28;20056;-60
2022/03/18 09:31:21;;;;;;;18.13;6.47;;;;;;;15.49;100.00;164617.06;5066164;28;20131;-57
2022/03/18 09:33:48;;;;;;;9.35;4.18;;;;;;;15.83;97.00;164706.47;5073317;28;20036;-56
2022/03/18 09:36:18;;;;;;;5.78;3.03;;;;;;;15.30;95.96;164565.66;5072376;28;20021;-57
2022/03/18 09:38:47;;;;;;;7.93;4.40;;;;;;;15.10;100.00;164514.19;5074861;28;20048;-56
2022/03/18 09:41:13;;;;;;;12.00;4.10;;;;;;;15.71;89.66;164673.94;5072571;28;20530;-57
2022/03/18 09:43:39;;;;;;;11.23;4.22;;;;;;;14.74;89.16;164419.47;5073745;28;20013;-56
2022/03/18 09:46:10;;;;;;;11.15;3.30;;;;;;;14.59;92.72;164381.53;5072496;28;20104;-57
2022/03/18 09:48:37;;;;;;;8.68;2.85;;;;;;;15.09;96.81;164511.47;5074167;28;20023;-57
2022/03/18 09:51:03;;;;;;;37.75;13.18;;;;;;;15.23;93.95;164549.38;5054673;28;20029;-57
2022/03/18 09:53:28;;;;;;;10.00;3.40;;;;;;;15.40;92.56;164592.69;5053805;28;20017;-57
2022/03/18 09:55:53;;;;;;;7.38;3.78;;;;;;;14.50;85.95;164357.16;5058981;28;20032;-57
2022/03/18 09:58:20;;;;;;;12.15;4.57;;;;;;;15.11;90.51;164515.56;5051522;28;20045;-57
2022/03/18 10:00:46;;;;;;;10.00;4.25;;;;;;;15.13;89.09;164522.31;5053512;28;20021;-55
2022/03/18 10:03:13;;;;;;;11.45;3.40;;;;;;;15.91;90.29;164725.41;5052161;28;20094;-56
2022/03/18 10:05:46;;;;;;;22.83;5.35;;;;;;;14.99;88.18;164484.44;5053551;28;20024;-57
2022/03/18 10:08:12;;;;;;;6.85;4.28;;;;;;;15.84;89.39;164707.84;5051972;28;20475;-57
2022/03/18 10:10:48;;;;;;;10.70;3.80;;;;;;;16.56;90.65;164896.09;5053357;28;20108;-57
2022/03/18 10:13:15;;;;;;;9.82;3.80;;;;;;;16.94;82.12;164997.75;5051356;28;20049;-57
2022/03/18 10:15:40;;;;;;;11.00;3.80;;;;;;;16.62;83.52;164912.34;5061793;28;20021;-57
2022/03/18 10:18:13;;;;;;;9.43;3.80;;;;;;;16.30;82.68;164828.34;5070741;28;20056;-57
2022/03/18 10:20:43;;;;;;;8.15;4.70;;;;;;;14.74;85.85;164419.47;5071733;28;20086;-57
2022/03/18 10:23:14;;;;;;;7.97;4.35;;;;;;;14.18;90.42;164273.31;5056812;28;20407;-57
2022/03/18 10:25:41;;;;;;;9.50;5.18;;;;;;;13.53;92.71;164101.53;5072261;28;20420;-57
2022/03/18 10:28:09;;;;;;;6.05;3.95;;;;;;;14.71;100.00;164411.31;5059998;28;20039;-57
2022/03/18 10:30:35;;;;;;;7.80;4.40;;;;;;;14.55;91.36;164370.72;5052103;28;20032;-57
2022/03/18 10:33:00;;;;;;;13.40;5.90;;;;;;;14.75;95.76;164423.50;5050826;28;20128;-57
2022/03/18 10:38:35;;;;;;;8.15;4.90;;;;;;;15.19;97.95;164538.56;5071085;28;20517;-57
2022/03/18 10:41:07;;;;;;;14.63;3.92;;;;;;;15.78;95.21;164691.56;5071722;28;20013;-57
2022/03/18 10:43:53;;;;;;;7.88;4.47;;;;;;;16.34;94.29;164840.53;5070466;28;20052;-57
2022/03/18 10:46:19;;;;;;;23.40;4.85;;;;;;;16.46;85.97;164871.72;5070749;28;20044;-57
2022/03/18 10:49:05;;;;;;;9.93;4.40;;;;;;;16.34;84.63;164839.22;5072510;28;20028;-57
2022/03/18 10:51:32;;;;;;;8.82;5.28;;;;;;;17.40;85.31;165117.00;5071442;28;20045;-57
2022/03/18 10:53:57;;;;;;;18.30;4.43;;;;;;;17.62;81.50;165175.25;5073120;28;20052;-57
2022/03/18 10:56:23;;;;;;;8.77;4.40;;;;;;;18.16;84.68;165316.28;5071174;28;20510;-57
2022/03/18 10:58:49;;;;;;;8.48;4.03;;;;;;;17.82;81.74;165228.13;5072712;28;20470;-57
2022/03/18 11:01:15;;;;;;;9.27;3.75;;;;;;;17.54;78.73;165153.56;5070101;28;20040;-57
2022/03/18 11:03:41;;;;;;;22.15;8.32;;;;;;;17.55;78.86;165157.66;5071795;28;20103;-57
2022/03/18 11:06:07;;;;;;;10.38;4.20;;;;;;;17.51;78.70;165145.44;5070710;28;20029;-57
2022/03/18 11:08:38;;;;;;;10.18;5.93;;;;;;;17.59;79.47;165167.16;5071146;28;20051;-57
2022/03/18 11:11:14;;;;;;;8.73;4.45;;;;;;;17.32;83.46;165095.31;5070365;28;20027;-57
2022/03/18 11:14:10;;;;;;;15.55;3.83;;;;;;;17.50;82.45;165144.06;5071679;28;20020;-57
2022/03/18 11:16:43;;;;;;;20.63;5.47;;;;;;;17.26;81.59;165080.38;5069881;28;20522;-57
2022/03/18 11:19:13;;;;;;;7.55;5.47;;;;;;;17.34;77.96;165102.06;5062983;28;20033;-57
2022/03/18 11:21:39;;;;;;;10.80;5.25;;;;;;;16.92;80.68;164990.94;5050650;28;20178;-57
2022/03/18 11:24:07;;;;;;;16.88;6.00;;;;;;;16.58;82.00;164901.47;5055424;28;20115;-57
2022/03/18 11:26:35;;;;;;;8.00;4.65;;;;;;;16.16;80.99;164793.16;5070496;28;20139;-57